Time;durP1;ratioP1;P1;durP2;ratioP2;P2;SDS_P1;SDS_P2;PMS_P1;PMS_P2;Temp;Humidity;BMP_temperature;BMP_pressure;BME280_temperature;BME280_humidity;BME280_pressure;Samples;Min_cycle;Max_cycle;Signal;HPM_P1;HPM_P2
2022/10/25 00:01:37;;;;;;;;;;;18.50;94.00;;;;;;5072967;28;20410;-87
2022/10/25 00:04:03;;;;;;;;;;;18.50;94.10;;;;;;5072996;28;19948;-88
2022/10/25 00:06:28;;;;;;;;;;;18.50;94.10;;;;;;5073395;28;19946;-88
2022/10/25 00:08:54;;;;;;;;;;;18.60;94.20;;;;;;5072769;28;19964;-87
2022/10/25 00:11:21;;;;;;;;;;;18.60;94.20;;;;;;5073096;28;19947;-88
2022/10/25 00:13:48;;;;;;;;;;;18.60;94.10;;;;;;5073041;28;20380;-88
2022/10/25 00:16:15;;;;;;;;;;;18.60;93.90;;;;;;5073026;28;19948;-87
2022/10/25 00:18:40;;;;;;;;;;;18.70;93.80;;;;;;5072575;28;19946;-87
2022/10/25 00:21:06;;;;;;;;;;;18.60;93.70;;;;;;5077242;28;19939;-87
2022/10/25 00:23:31;;;;;;;;;;;18.60;93.70;;;;;;5077174;28;19944;-88
2022/10/25 00:26:01;;;;;;;;;;;18.60;93.80;;;;;;5077443;28;19962;-87
2022/10/25 00:28:26;;;;;;;;;;;18.60;93.80;;;;;;5076643;28;19974;-87
2022/10/25 00:31:02;;;;;;;;;;;18.70;93.80;;;;;;5076784;28;20045;-87
2022/10/25 00:33:29;;;;;;;;;;;18.70;93.70;;;;;;5077000;28;19941;-88
2022/10/25 00:35:54;;;;;;;;;;;18.60;93.70;;;;;;5076927;28;20399;-87
2022/10/25 00:38:20;;;;;;;;;;;18.60;93.70;;;;;;5076669;28;19947;-87
2022/10/25 00:40:45;;;;;;;;;;;18.60;93.80;;;;;;5076651;28;19964;-87
2022/10/25 00:43:28;;;;;;;;;;;18.50;94.00;;;;;;5076711;28;19937;-87
2022/10/25 00:45:53;;;;;;;;;;;18.50;94.00;;;;;;5076723;28;20406;-87
2022/10/25 00:48:19;;;;;;;;;;;18.60;94.00;;;;;;5076380;28;19965;-87
2022/10/25 00:50:48;;;;;;;;;;;18.50;94.00;;;;;;5075082;28;19945;-87
2022/10/25 00:53:18;;;;;;;;;;;18.50;94.00;;;;;;5076309;28;19970;-87
2022/10/25 00:55:47;;;;;;;;;;;18.50;94.00;;;;;;5076553;28;19940;-87
2022/10/25 00:58:15;;;;;;;;;;;18.60;94.00;;;;;;5076220;28;20009;-87
2022/10/25 01:00:40;;;;;;;;;;;18.60;93.80;;;;;;5076499;28;19943;-87
2022/10/25 01:03:06;;;;;;;;;;;18.60;93.80;;;;;;5076070;28;20379;-88
2022/10/25 01:05:33;;;;;;;;;;;18.60;93.70;;;;;;5076700;28;19991;-88
2022/10/25 01:07:58;;;;;;;;;;;18.60;93.80;;;;;;5076097;28;20432;-88
2022/10/25 01:10:24;;;;;;;;;;;18.60;93.80;;;;;;5076357;28;19939;-88
2022/10/25 01:12:50;;;;;;;;;;;18.60;93.70;;;;;;5075996;28;19997;-87
2022/10/25 01:15:15;;;;;;;;;;;18.50;93.70;;;;;;5076267;28;20426;-87
2022/10/25 01:17:54;;;;;;;;;;;18.60;93.70;;;;;;5075986;28;20323;-87
2022/10/25 01:20:22;;;;;;;;;;;18.60;93.70;;;;;;5076164;28;19949;-87
2022/10/25 01:23:06;;;;;;;;;;;18.50;93.80;;;;;;5076056;28;20006;-87
2022/10/25 01:25:35;;;;;;;;;;;18.40;93.80;;;;;;5076025;28;19946;-87
2022/10/25 01:28:17;;;;;;;;;;;18.50;93.90;;;;;;5075453;28;19962;-87
2022/10/25 01:30:48;;;;;;;;;;;18.50;93.70;;;;;;5075641;28;20366;-87
2022/10/25 01:33:16;;;;;;;;;;;18.50;93.50;;;;;;5075868;28;19962;-87
2022/10/25 01:35:53;;;;;;;;;;;18.50;93.50;;;;;;5075750;28;20004;-87
2022/10/25 01:38:24;;;;;;;;;;;18.50;93.60;;;;;;5075897;28;20415;-88
2022/10/25 01:40:59;;;;;;;;;;;18.50;93.60;;;;;;5075757;28;19940;-88
2022/10/25 01:43:32;;;;;;;;;;;18.50;93.60;;;;;;5075824;28;19942;-88
2022/10/25 01:46:04;;;;;;;;;;;18.50;93.70;;;;;;5075494;28;19948;-87
2022/10/25 01:48:33;;;;;;;;;;;18.40;93.80;;;;;;5075248;28;20020;-87
2022/10/25 01:51:09;;;;;;;;;;;18.40;93.90;;;;;;5075379;28;19950;-87
2022/10/25 01:53:45;;;;;;;;;;;18.40;94.00;;;;;;5075448;28;19949;-87
2022/10/25 01:56:13;;;;;;;;;;;18.40;94.10;;;;;;5075728;28;20004;-87
2022/10/25 01:58:44;;;;;;;;;;;18.40;94.20;;;;;;5075359;28;20085;-87
2022/10/25 02:01:13;;;;;;;;;;;18.40;94.10;;;;;;5075365;28;19939;-88
2022/10/25 02:03:49;;;;;;;;;;;18.40;94.10;;;;;;5075325;28;19941;-87
2022/10/25 02:06:37;;;;;;;;;;;18.40;94.10;;;;;;5075298;28;19946;-87
2022/10/25 02:09:10;;;;;;;;;;;18.40;94.10;;;;;;5075188;28;19960;-88
2022/10/25 02:11:36;;;;;;;;;;;18.40;94.00;;;;;;5075272;28;20085;-88
2022/10/25 02:14:06;;;;;;;;;;;18.30;93.90;;;;;;5075231;28;19980;-88
2022/10/25 02:16:38;;;;;;;;;;;18.30;93.90;;;;;;5074876;28;20395;-88
2022/10/25 02:19:05;;;;;;;;;;;18.20;93.90;;;;;;5074790;28;19967;-88
2022/10/25 02:21:32;;;;;;;;;;;18.20;94.00;;;;;;5074961;28;19991;-88
2022/10/25 02:23:58;;;;;;;;;;;18.30;93.90;;;;;;5074834;28;19935;-88
2022/10/25 02:26:25;;;;;;;;;;;18.30;93.90;;;;;;5074760;28;19947;-88
2022/10/25 02:28:51;;;;;;;;;;;18.30;93.90;;;;;;5074567;28;20008;-88
2022/10/25 02:31:18;;;;;;;;;;;18.30;93.90;;;;;;5074803;28;20039;-88
2022/10/25 02:33:44;;;;;;;;;;;18.30;94.00;;;;;;5074850;28;19992;-88
2022/10/25 02:36:15;;;;;;;;;;;18.30;94.10;;;;;;5074687;28;19943;-87
2022/10/25 02:38:41;;;;;;;;;;;18.30;94.20;;;;;;5074817;28;19946;-87
2022/10/25 02:41:07;;;;;;;;;;;18.30;94.30;;;;;;5074700;28;20006;-87
2022/10/25 02:43:32;;;;;;;;;;;18.30;94.40;;;;;;5073923;28;20411;-86
2022/10/25 02:45:58;;;;;;;;;;;18.30;94.50;;;;;;5074499;28;20420;-86
2022/10/25 02:48:24;;;;;;;;;;;18.30;94.60;;;;;;5073801;28;19961;-86
2022/10/25 02:50:50;;;;;;;;;;;18.40;94.60;;;;;;5074011;28;19948;-87
2022/10/25 02:53:15;;;;;;;;;;;18.40;94.50;;;;;;5074005;28;19938;-87
2022/10/25 02:55:41;;;;;;;;;;;18.40;94.50;;;;;;5074254;28;19974;-87
2022/10/25 02:58:06;;;;;;;;;;;18.40;94.40;;;;;;5074194;28;19973;-87
2022/10/25 03:00:32;;;;;;;;;;;18.40;94.00;;;;;;5073940;28;19944;-87
2022/10/25 03:02:57;;;;;;;;;;;18.30;93.70;;;;;;5074083;28;19940;-87
2022/10/25 03:05:23;;;;;;;;;;;18.40;93.10;;;;;;5074146;28;19941;-87
2022/10/25 03:07:48;;;;;;;;;;;18.30;92.70;;;;;;5073992;28;19960;-87
2022/10/25 03:10:14;;;;;;;;;;;18.30;92.40;;;;;;5073286;28;20005;-88
2022/10/25 03:12:39;;;;;;;;;;;18.30;92.00;;;;;;5074051;28;20446;-88
2022/10/25 03:15:05;;;;;;;;;;;18.40;91.80;;;;;;5073884;28;20053;-87
2022/10/25 03:17:31;;;;;;;;;;;18.40;91.70;;;;;;5073743;28;20331;-88
2022/10/25 03:19:56;;;;;;;;;;;18.50;91.60;;;;;;5073497;28;20415;-87
2022/10/25 03:22:22;;;;;;;;;;;18.60;90.60;;;;;;5073568;28;20420;-87
2022/10/25 03:24:47;;;;;;;;;;;18.60;90.00;;;;;;5073589;28;20396;-87
2022/10/25 03:27:13;;;;;;;;;;;18.60;89.10;;;;;;5073414;28;19941;-87
2022/10/25 03:29:38;;;;;;;;;;;18.50;88.60;;;;;;5073519;28;20466;-88
2022/10/25 03:32:06;;;;;;;;;;;18.50;88.00;;;;;;5071930;28;20034;-88
2022/10/25 03:34:32;;;;;;;;;;;18.40;87.50;;;;;;5073406;28;19944;-87
2022/10/25 03:36:57;;;;;;;;;;;18.40;87.00;;;;;;5073644;28;19974;-88
2022/10/25 03:39:23;;;;;;;;;;;18.40;86.90;;;;;;5072205;28;19951;-87
2022/10/25 03:41:49;;;;;;;;;;;18.30;87.40;;;;;;5073546;28;19990;-88
2022/10/25 03:44:14;;;;;;;;;;;18.30;88.70;;;;;;5073444;28;20322;-88
2022/10/25 03:46:40;;;;;;;;;;;18.10;89.40;;;;;;5073444;28;20298;-88
2022/10/25 03:49:05;;;;;;;;;;;18.00;90.00;;;;;;5071822;28;20047;-88
2022/10/25 03:51:31;;;;;;;;;;;17.90;90.40;;;;;;5073241;28;20088;-88
2022/10/25 03:53:56;;;;;;;;;;;17.80;90.40;;;;;;5073294;28;19942;-87
2022/10/25 03:56:22;;;;;;;;;;;17.80;91.10;;;;;;5073402;28;20006;-88
2022/10/25 03:58:48;;;;;;;;;;;17.70;91.30;;;;;;5073436;28;19943;-88
2022/10/25 04:01:13;;;;;;;;;;;17.70;91.60;;;;;;5073365;28;19942;-88
2022/10/25 04:03:39;;;;;;;;;;;17.60;91.60;;;;;;5073294;28;19938;-88
2022/10/25 04:06:04;;;;;;;;;;;17.60;91.80;;;;;;5073312;28;19937;-88
2022/10/25 04:08:30;;;;;;;;;;;17.50;92.00;;;;;;5072935;28;19962;-88
2022/10/25 04:10:56;;;;;;;;;;;17.50;91.90;;;;;;5073208;28;19999;-88
2022/10/25 04:13:21;;;;;;;;;;;17.40;92.00;;;;;;5073456;28;19940;-88
2022/10/25 04:15:47;;;;;;;;;;;17.40;92.10;;;;;;5073589;28;19938;-88
2022/10/25 04:18:12;;;;;;;;;;;17.40;92.10;;;;;;5073052;28;20394;-88
2022/10/25 04:20:38;;;;;;;;;;;17.40;92.10;;;;;;5072018;28;19947;-88
2022/10/25 04:23:03;;;;;;;;;;;17.40;92.10;;;;;;5072980;28;20093;-88
2022/10/25 04:25:29;;;;;;;;;;;17.40;92.00;;;;;;5073245;28;19937;-87
2022/10/25 04:27:54;;;;;;;;;;;17.40;92.10;;;;;;5072833;28;20021;-88
2022/10/25 04:30:20;;;;;;;;;;;17.30;92.10;;;;;;5072829;28;20443;-88
2022/10/25 04:32:46;;;;;;;;;;;17.30;92.20;;;;;;5071776;28;20465;-88
2022/10/25 04:35:11;;;;;;;;;;;17.40;92.20;;;;;;5073034;28;19936;-88
2022/10/25 04:37:37;;;;;;;;;;;17.40;92.00;;;;;;5072914;28;19941;-87
2022/10/25 04:40:03;;;;;;;;;;;17.40;92.10;;;;;;5072897;28;19944;-88
2022/10/25 04:42:31;;;;;;;;;;;17.30;92.20;;;;;;5073160;28;20036;-88
2022/10/25 04:44:57;;;;;;;;;;;17.30;92.20;;;;;;5072924;28;20344;-88
2022/10/25 04:47:22;;;;;;;;;;;17.30;92.40;;;;;;5072589;28;20013;-88
2022/10/25 04:49:48;;;;;;;;;;;17.30;92.70;;;;;;5072926;28;19983;-88
2022/10/25 04:52:13;;;;;;;;;;;17.20;92.90;;;;;;5072709;28;19956;-89
2022/10/25 04:54:39;;;;;;;;;;;17.20;92.90;;;;;;5072810;28;19945;-88
2022/10/25 04:57:06;;;;;;;;;;;17.20;93.00;;;;;;5067431;28;19946;-88
2022/10/25 04:59:31;;;;;;;;;;;17.10;93.00;;;;;;5072755;28;20311;-88
2022/10/25 05:01:57;;;;;;;;;;;17.10;93.10;;;;;;5073065;28;19954;-88
2022/10/25 05:04:22;;;;;;;;;;;17.10;93.20;;;;;;5072339;28;20309;-88
2022/10/25 05:06:48;;;;;;;;;;;17.00;93.30;;;;;;5075033;28;20489;-88
2022/10/25 05:09:13;;;;;;;;;;;17.10;93.40;;;;;;5060164;28;20008;-88
2022/10/25 05:11:39;;;;;;;;;;;17.10;93.30;;;;;;5075515;28;19943;-88
2022/10/25 05:14:04;;;;;;;;;;;17.10;93.20;;;;;;5076556;28;19944;-88
2022/10/25 05:16:33;;;;;;;;;;;17.10;93.10;;;;;;5067050;28;20026;-88
2022/10/25 05:19:00;;;;;;;;;;;17.10;93.10;;;;;;5071475;28;20411;-88
2022/10/25 05:21:29;;;;;;;;;;;17.10;93.00;;;;;;5075632;28;19946;-88
2022/10/25 05:23:55;;;;;;;;;;;17.10;93.00;;;;;;5075621;28;19967;-87
2022/10/25 05:26:20;;;;;;;;;;;17.10;93.00;;;;;;5065523;28;20001;-88
2022/10/25 05:28:47;;;;;;;;;;;17.10;93.00;;;;;;5064301;28;19976;-88
2022/10/25 05:31:23;;;;;;;;;;;17.10;92.80;;;;;;5072591;28;19949;-88
2022/10/25 05:33:50;;;;;;;;;;;17.00;92.90;;;;;;5075512;28;19985;-87
2022/10/25 05:36:16;;;;;;;;;;;17.10;92.90;;;;;;5073904;28;20362;-88
2022/10/25 05:38:41;;;;;;;;;;;17.10;92.60;;;;;;5073280;28;20202;-88
2022/10/25 05:41:08;;;;;;;;;;;17.10;92.60;;;;;;5074093;28;19952;-88
2022/10/25 05:43:34;;;;;;;;;;;17.10;92.60;;;;;;5075378;28;20053;-88
2022/10/25 05:46:01;;;;;;;;;;;17.10;92.50;;;;;;5074954;28;19964;-87
2022/10/25 05:48:26;;;;;;;;;;;17.10;92.50;;;;;;5075607;28;20414;-88
2022/10/25 05:50:52;;;;;;;;;;;17.20;92.30;;;;;;5073742;28;19961;-88
2022/10/25 05:53:18;;;;;;;;;;;17.20;92.30;;;;;;5070650;28;20515;-88
2022/10/25 05:55:43;;;;;;;;;;;17.10;92.10;;;;;;5075249;28;20044;-87
2022/10/25 05:58:09;;;;;;;;;;;17.10;92.10;;;;;;5073466;28;20399;-87
2022/10/25 06:00:34;;;;;;;;;;;17.00;92.20;;;;;;5072970;28;20316;-87
2022/10/25 06:03:01;;;;;;;;;;;17.00;92.60;;;;;;5074402;28;20290;-88
2022/10/25 06:05:26;;;;;;;;;;;17.00;92.40;;;;;;5074534;28;20312;-88
2022/10/25 06:07:52;;;;;;;;;;;17.10;92.30;;;;;;5075509;28;20433;-88
2022/10/25 06:10:17;;;;;;;;;;;17.10;92.30;;;;;;5071865;28;20048;-88
2022/10/25 06:12:43;;;;;;;;;;;17.10;92.20;;;;;;5075277;28;20847;-89
2022/10/25 06:15:08;;;;;;;;;;;17.20;92.00;;;;;;5074979;28;19944;-90
2022/10/25 06:17:34;;;;;;;;;;;17.20;91.70;;;;;;5073671;28;19964;-89
2022/10/25 06:19:59;;;;;;;;;;;17.20;91.50;;;;;;5073052;28;20316;-89
2022/10/25 06:22:25;;;;;;;;;;;17.10;91.60;;;;;;5072365;28;19943;-90
2022/10/25 06:24:50;;;;;;;;;;;17.10;91.70;;;;;;5073850;28;20386;-89
2022/10/25 06:27:16;;;;;;;;;;;17.10;91.70;;;;;;5064962;28;19953;-89
2022/10/25 06:29:42;;;;;;;;;;;17.10;91.70;;;;;;5090957;22;20358;-89
2022/10/25 06:32:07;;;;;;;;;;;17.10;91.70;;;;;;5093786;28;20050;-89
2022/10/25 06:34:33;;;;;;;;;;;17.10;91.70;;;;;;5093846;28;19938;-89
2022/10/25 06:37:00;;;;;;;;;;;17.10;91.60;;;;;;5093394;28;20387;-90
2022/10/25 06:39:26;;;;;;;;;;;17.10;91.70;;;;;;5094162;28;19946;-89
2022/10/25 06:41:51;;;;;;;;;;;17.10;91.60;;;;;;5093411;28;19944;-90
2022/10/25 06:44:17;;;;;;;;;;;17.10;91.50;;;;;;5094067;28;19946;-89
2022/10/25 06:46:42;;;;;;;;;;;17.20;91.20;;;;;;5092180;28;19940;-89
2022/10/25 06:49:08;;;;;;;;;;;17.20;91.30;;;;;;5080770;28;19965;-89
2022/10/25 06:51:34;;;;;;;;;;;17.10;91.10;;;;;;5090879;28;19968;-89
2022/10/25 06:54:00;;;;;;;;;;;17.10;90.80;;;;;;5093517;28;19945;-90
2022/10/25 06:56:27;;;;;;;;;;;17.20;90.70;;;;;;5091562;28;19944;-89
2022/10/25 06:58:53;;;;;;;;;;;17.20;90.80;;;;;;5093781;28;20028;-89
2022/10/25 07:01:19;;;;;;;;;;;17.10;90.80;;;;;;5092342;28;20040;-89
2022/10/25 07:03:45;;;;;;;;;;;17.20;91.10;;;;;;5093875;28;19942;-89
2022/10/25 07:06:12;;;;;;;;;;;17.10;91.10;;;;;;5091515;28;20476;-89
2022/10/25 07:08:38;;;;;;;;;;;17.10;91.10;;;;;;5090181;28;20006;-89
2022/10/25 07:11:04;;;;;;;;;;;17.10;91.00;;;;;;5092319;28;20045;-88
2022/10/25 07:13:31;;;;;;;;;;;17.10;91.40;;;;;;5093775;28;20089;-88
2022/10/25 07:16:04;;;;;;;;;;;17.10;91.40;;;;;;5091504;28;19945;-89
2022/10/25 07:18:29;;;;;;;;;;;17.20;91.00;;;;;;5094359;28;19999;-89
2022/10/25 07:20:58;;;;;;;;;;;17.10;91.20;;;;;;5091559;28;20410;-88
2022/10/25 07:23:24;;;;;;;;;;;17.20;91.50;;;;;;5093406;28;19940;-88
2022/10/25 07:25:50;;;;;;;;;;;17.20;91.60;;;;;;5093882;28;19947;-88
2022/10/25 07:28:15;;;;;;;;;;;17.20;91.10;;;;;;5092225;28;19962;-89
2022/10/25 07:30:45;;;;;;;;;;;17.30;91.10;;;;;;5090485;28;20045;-88
2022/10/25 07:33:11;;;;;;;;;;;17.30;90.90;;;;;;5093300;28;19935;-89
2022/10/25 07:35:36;;;;;;;;;;;17.30;90.60;;;;;;5092311;28;20012;-89
2022/10/25 07:38:02;;;;;;;;;;;17.30;90.70;;;;;;5088213;28;20415;-88
2022/10/25 07:40:27;;;;;;;;;;;17.30;90.60;;;;;;5091675;28;19963;-89
2022/10/25 07:42:53;;;;;;;;;;;17.30;90.50;;;;;;5091094;28;19939;-89
2022/10/25 07:45:18;;;;;;;;;;;17.30;90.50;;;;;;5085887;28;19945;-89
2022/10/25 07:47:44;;;;;;;;;;;17.30;90.50;;;;;;5092364;28;19959;-89
2022/10/25 07:50:09;;;;;;;;;;;17.30;90.50;;;;;;5091067;28;19958;-89
2022/10/25 07:52:35;;;;;;;;;;;17.30;90.50;;;;;;5091446;28;19973;-89
2022/10/25 07:55:00;;;;;;;;;;;17.30;90.50;;;;;;5092439;28;19940;-89
2022/10/25 07:57:26;;;;;;;;;;;17.30;90.60;;;;;;5092667;28;19949;-89
2022/10/25 07:59:51;;;;;;;;;;;17.30;90.60;;;;;;5091669;28;19940;-89
2022/10/25 08:02:17;;;;;;;;;;;17.40;90.60;;;;;;5090271;28;19994;-89
2022/10/25 08:04:43;;;;;;;;;;;17.40;90.60;;;;;;5090997;28;19958;-89
2022/10/25 08:07:08;;;;;;;;;;;17.50;90.50;;;;;;5091391;28;19980;-89
2022/10/25 08:09:34;;;;;;;;;;;17.50;90.50;;;;;;5087168;28;19951;-89
2022/10/25 08:11:59;;;;;;;;;;;17.60;90.60;;;;;;5087840;28;19950;-89
2022/10/25 08:14:25;;;;;;;;;;;17.70;90.40;;;;;;5090785;28;19946;-89
2022/10/25 08:16:50;;;;;;;;;;;17.70;90.40;;;;;;5090763;28;19944;-89
2022/10/25 08:19:16;;;;;;;;;;;17.80;90.10;;;;;;5090805;28;19945;-90
2022/10/25 08:21:41;;;;;;;;;;;17.80;89.80;;;;;;5090930;28;19942;-89
2022/10/25 08:24:07;;;;;;;;;;;17.80;89.70;;;;;;5085657;28;19948;-89
2022/10/25 08:26:32;;;;;;;;;;;17.80;89.70;;;;;;5091471;28;19952;-89
2022/10/25 08:28:58;;;;;;;;;;;17.80;90.20;;;;;;5088922;28;20037;-89
2022/10/25 08:31:23;;;;;;;;;;;17.80;90.20;;;;;;5091757;28;19993;-89
2022/10/25 08:33:49;;;;;;;;;;;17.80;90.20;;;;;;5091460;28;19985;-89
2022/10/25 08:36:14;;;;;;;;;;;17.90;89.80;;;;;;5089647;28;19953;-89
2022/10/25 08:38:40;;;;;;;;;;;17.90;89.40;;;;;;5082069;28;19945;-89
2022/10/25 08:41:09;;;;;;;;;;;17.90;89.40;;;;;;5094135;28;19944;-89
2022/10/25 08:43:37;;;;;;;;;;;18.00;89.40;;;;;;5095576;28;20307;-89
2022/10/25 08:46:07;;;;;;;;;;;18.10;89.30;;;;;;5089226;28;19948;-89
2022/10/25 08:48:36;;;;;;;;;;;18.20;89.20;;;;;;5094770;28;20414;-89
2022/10/25 08:51:03;;;;;;;;;;;18.30;88.70;;;;;;5094349;28;20462;-89
2022/10/25 08:53:32;;;;;;;;;;;18.40;88.30;;;;;;5092007;28;20392;-89
2022/10/25 08:55:58;;;;;;;;;;;18.40;88.40;;;;;;5084029;28;19990;-89
2022/10/25 08:58:35;;;;;;;;;;;18.50;87.30;;;;;;5077125;28;20002;-89
2022/10/25 09:01:03;;;;;;;;;;;18.40;86.30;;;;;;5087797;28;19949;-89
2022/10/25 09:03:29;;;;;;;;;;;18.50;86.10;;;;;;5082060;28;20384;-89
2022/10/25 09:06:09;;;;;;;;;;;18.40;86.30;;;;;;5094896;28;19951;-90
2022/10/25 09:08:44;;;;;;;;;;;18.40;86.60;;;;;;5093488;28;19971;-89
2022/10/25 09:11:20;;;;;;;;;;;18.40;86.60;;;;;;5092939;28;19951;-89
2022/10/25 09:13:51;;;;;;;;;;;18.50;86.60;;;;;;5086750;28;20408;-89
2022/10/25 09:16:20;;;;;;;;;;;18.60;86.60;;;;;;5093725;28;19947;-90
2022/10/25 09:18:47;;;;;;;;;;;18.70;86.50;;;;;;5093057;28;19946;-90
2022/10/25 09:21:36;;;;;;;;;;;18.80;85.30;;;;;;5095913;28;19957;-90
2022/10/25 09:24:05;;;;;;;;;;;18.80;85.00;;;;;;5092483;28;19945;-89
2022/10/25 09:26:53;;;;;;;;;;;18.90;83.80;;;;;;5094608;28;19950;-89
2022/10/25 09:29:28;;;;;;;;;;;18.90;83.50;;;;;;5092778;28;20017;-89
2022/10/25 09:31:57;;;;;;;;;;;18.80;84.40;;;;;;5093382;28;19947;-89
2022/10/25 09:34:24;;;;;;;;;;;18.80;84.40;;;;;;5089203;28;19952;-89
2022/10/25 09:36:55;;;;;;;;;;;18.90;84.10;;;;;;5094941;28;19949;-89
2022/10/25 09:39:21;;;;;;;;;;;18.90;83.50;;;;;;5092892;28;19989;-89
2022/10/25 09:41:48;;;;;;;;;;;19.00;83.80;;;;;;5095571;28;19992;-90
2022/10/25 09:44:16;;;;;;;;;;;19.00;83.80;;;;;;5092452;28;19948;-89
2022/10/25 09:46:44;;;;;;;;;;;19.10;82.20;;;;;;5093653;28;19984;-89
2022/10/25 09:49:18;;;;;;;;;;;19.10;82.80;;;;;;5093691;28;19959;-89
2022/10/25 09:52:01;;;;;;;;;;;19.10;82.80;;;;;;5095206;28;19970;-89
2022/10/25 09:54:33;;;;;;;;;;;19.10;82.60;;;;;;5080533;28;19942;-89
2022/10/25 09:56:59;;;;;;;;;;;19.20;81.90;;;;;;5090416;28;19948;-89
2022/10/25 09:59:26;;;;;;;;;;;19.20;81.50;;;;;;5091502;28;19949;-89
2022/10/25 10:01:52;;;;;;;;;;;19.30;81.60;;;;;;5093728;28;19941;-90
2022/10/25 10:04:29;;;;;;;;;;;19.30;81.60;;;;;;5093335;28;19945;-89
2022/10/25 10:06:57;;;;;;;;;;;19.40;81.40;;;;;;5089230;28;19989;-90
2022/10/25 10:09:23;;;;;;;;;;;19.60;80.90;;;;;;5092988;28;19967;-90
2022/10/25 10:11:51;;;;;;;;;;;19.60;79.70;;;;;;5094246;28;20041;-90
2022/10/25 10:14:24;;;;;;;;;;;19.70;80.60;;;;;;5095678;28;19951;-90
2022/10/25 10:16:52;;;;;;;;;;;19.70;79.30;;;;;;5095888;28;19956;-90
2022/10/25 10:19:22;;;;;;;;;;;19.80;78.50;;;;;;5095506;28;19988;-90
2022/10/25 10:21:54;;;;;;;;;;;19.80;77.90;;;;;;5093845;28;20315;-90
2022/10/25 10:24:19;;;;;;;;;;;19.90;78.80;;;;;;5094579;28;20420;-90
2022/10/25 10:26:48;;;;;;;;;;;19.90;78.70;;;;;;5093485;28;19943;-90
2022/10/25 10:29:19;;;;;;;;;;;19.90;78.40;;;;;;5095093;28;19974;-90
2022/10/25 10:31:52;;;;;;;;;;;20.00;78.50;;;;;;5095267;28;19946;-90
2022/10/25 10:34:26;;;;;;;;;;;20.10;77.30;;;;;;5095081;28;19942;-89
2022/10/25 10:37:01;;;;;;;;;;;20.20;76.60;;;;;;5095099;28;20018;-90
2022/10/25 10:39:27;;;;;;;;;;;20.30;76.00;;;;;;5095002;28;19949;-90
2022/10/25 10:42:03;;;;;;;;;;;20.40;77.00;;;;;;5094861;28;19988;-90
2022/10/25 10:44:33;;;;;;;;;;;20.50;77.30;;;;;;5094724;28;20025;-90
2022/10/25 10:47:00;;;;;;;;;;;20.60;75.40;;;;;;5093374;28;19995;-89
2022/10/25 10:49:51;;;;;;;;;;;20.80;75.60;;;;;;5093980;28;20025;-90
2022/10/25 10:52:32;;;;;;;;;;;20.80;74.30;;;;;;5087716;28;20496;-89
2022/10/25 10:54:58;;;;;;;;;;;21.00;73.50;;;;;;5094215;28;19964;-90
2022/10/25 10:57:28;;;;;;;;;;;21.10;72.40;;;;;;5094100;28;19979;-90
2022/10/25 10:59:55;;;;;;;;;;;21.20;72.80;;;;;;5093027;28;19957;-91
2022/10/25 11:02:26;;;;;;;;;;;21.30;72.60;;;;;;5093338;28;19952;-90
2022/10/25 11:04:53;;;;;;;;;;;21.50;71.40;;;;;;5094231;28;19945;-90
2022/10/25 11:07:24;;;;;;;;;;;21.70;70.60;;;;;;5094050;28;19954;-90
2022/10/25 11:09:50;;;;;;;;;;;21.90;71.00;;;;;;5086919;28;19944;-90
2022/10/25 11:12:16;;;;;;;;;;;22.10;70.10;;;;;;5093359;28;19948;-90
2022/10/25 11:14:42;;;;;;;;;;;22.30;69.90;;;;;;5075084;28;19982;-90
2022/10/25 11:17:07;;;;;;;;;;;22.60;67.90;;;;;;5085087;28;19983;-90
2022/10/25 11:19:33;;;;;;;;;;;22.80;67.20;;;;;;5092751;28;19940;-90
2022/10/25 11:22:10;;;;;;;;;;;23.00;67.10;;;;;;5093560;28;19950;-90
2022/10/25 11:25:01;;;;;;;;;;;23.30;64.60;;;;;;5092205;28;20018;-90
2022/10/25 11:27:46;;;;;;;;;;;23.40;64.20;;;;;;5091426;28;20048;-90
2022/10/25 11:30:14;;;;;;;;;;;23.70;64.20;;;;;;5089258;28;19983;-89
2022/10/25 11:32:49;;;;;;;;;;;23.70;62.40;;;;;;5086801;28;19940;-90
2022/10/25 11:35:23;;;;;;;;;;;23.90;62.90;;;;;;5088880;28;19978;-90
2022/10/25 11:37:56;;;;;;;;;;;24.20;62.90;;;;;;5084491;28;20318;-90
2022/10/25 11:40:28;;;;;;;;;;;24.60;60.10;;;;;;5092199;28;19946;-90
2022/10/25 11:43:03;;;;;;;;;;;24.70;57.40;;;;;;5087277;28;19948;-90
2022/10/25 11:45:47;;;;;;;;;;;25.00;57.80;;;;;;5089094;28;20375;-90
2022/10/25 11:48:31;;;;;;;;;;;25.40;58.60;;;;;;5090209;28;20411;-90
2022/10/25 11:51:02;;;;;;;;;;;26.10;56.00;;;;;;5087973;28;20023;-91
2022/10/25 11:53:46;;;;;;;;;;;27.10;52.50;;;;;;5082149;28;19989;-91
2022/10/25 11:56:12;;;;;;;;;;;27.90;49.80;;;;;;5090302;28;19947;-90
2022/10/25 11:58:37;;;;;;;;;;;28.80;46.90;;;;;;5091570;28;20047;-90
2022/10/25 12:01:03;;;;;;;;;;;29.40;45.10;;;;;;5089760;28;20035;-91
2022/10/25 12:03:28;;;;;;;;;;;29.90;44.30;;;;;;5090669;28;20343;-90
2022/10/25 12:06:11;;;;;;;;;;;30.50;43.50;;;;;;5092167;28;19944;-91
2022/10/25 12:08:51;;;;;;;;;;;31.00;42.60;;;;;;5089268;28;19978;-90
2022/10/25 12:11:19;;;;;;;;;;;31.20;41.90;;;;;;5086335;28;19953;-90
2022/10/25 12:13:48;;;;;;;;;;;31.80;41.10;;;;;;5090469;28;19949;-90
2022/10/25 12:16:15;;;;;;;;;;;32.40;39.30;;;;;;5090081;28;20009;-90
2022/10/25 12:18:43;;;;;;;;;;;32.40;38.10;;;;;;5085772;28;20461;-90
2022/10/25 12:21:11;;;;;;;;;;;32.20;37.80;;;;;;5088527;28;20139;-90
2022/10/25 12:23:42;;;;;;;;;;;32.10;38.80;;;;;;5080285;28;19942;-90
2022/10/25 12:26:18;;;;;;;;;;;32.40;39.50;;;;;;5090580;28;20368;-90
2022/10/25 12:28:48;;;;;;;;;;;32.60;38.70;;;;;;5089149;28;20431;-90
2022/10/25 12:31:22;;;;;;;;;;;32.50;38.70;;;;;;5091963;28;20038;-90
2022/10/25 12:33:57;;;;;;;;;;;32.90;38.90;;;;;;5088511;28;19988;-90
2022/10/25 12:36:23;;;;;;;;;;;32.50;37.70;;;;;;5090694;28;19945;-89
2022/10/25 12:38:48;;;;;;;;;;;31.50;38.70;;;;;;5084846;28;19948;-90
2022/10/25 12:41:18;;;;;;;;;;;30.70;40.40;;;;;;5091874;28;19979;-91
2022/10/25 12:43:54;;;;;;;;;;;30.30;40.80;;;;;;5093661;28;19949;-89
2022/10/25 12:46:41;;;;;;;;;;;30.10;40.20;;;;;;5082409;28;19942;-90
2022/10/25 12:49:07;;;;;;;;;;;30.00;40.40;;;;;;5087520;28;20018;-90
2022/10/25 12:51:48;;;;;;;;;;;30.60;40.30;;;;;;5086850;28;20431;-90
2022/10/25 12:54:19;;;;;;;;;;;31.10;39.30;;;;;;5087755;28;19963;-90
2022/10/25 12:56:45;;;;;;;;;;;32.00;38.00;;;;;;5087331;28;19960;-90
2022/10/25 12:59:13;;;;;;;;;;;32.70;36.60;;;;;;5089831;28;20475;-91
2022/10/25 13:01:48;;;;;;;;;;;33.30;36.20;;;;;;5091402;28;19943;-90
2022/10/25 13:04:25;;;;;;;;;;;33.70;35.40;;;;;;5080974;28;20011;-91
2022/10/25 13:06:51;;;;;;;;;;;33.70;34.20;;;;;;5082352;28;19943;-90
2022/10/25 13:09:18;;;;;;;;;;;32.80;36.00;;;;;;5086611;28;19962;-90
2022/10/25 13:11:57;;;;;;;;;;;33.10;34.90;;;;;;5090601;28;20384;-90
2022/10/25 13:14:29;;;;;;;;;;;33.50;34.00;;;;;;5090278;28;19945;-91
2022/10/25 13:17:32;;;;;;;;;;;33.30;35.30;;;;;;5089748;28;20408;-90
2022/10/25 13:20:17;;;;;;;;;;;32.80;36.30;;;;;;5083608;28;19969;-91
2022/10/25 13:22:42;;;;;;;;;;;32.70;36.50;;;;;;5085840;28;19947;-90
2022/10/25 13:25:11;;;;;;;;;;;33.00;35.50;;;;;;5086862;28;19946;-90
2022/10/25 13:27:37;;;;;;;;;;;33.40;34.50;;;;;;5092967;28;20402;-91
2022/10/25 13:30:22;;;;;;;;;;;33.20;35.60;;;;;;5093523;28;19983;-90
2022/10/25 13:33:06;;;;;;;;;;;33.30;35.60;;;;;;5088930;28;19944;-91
2022/10/25 13:35:37;;;;;;;;;;;33.30;35.50;;;;;;5092918;28;19947;-90
2022/10/25 13:38:07;;;;;;;;;;;33.90;34.70;;;;;;5094623;28;19950;-90
2022/10/25 13:40:33;;;;;;;;;;;33.90;33.90;;;;;;5085534;28;20044;-90
2022/10/25 13:42:58;;;;;;;;;;;34.60;32.40;;;;;;5092867;28;20040;-89
2022/10/25 13:45:28;;;;;;;;;;;34.60;32.50;;;;;;5088453;28;19989;-90
2022/10/25 13:47:54;;;;;;;;;;;34.60;32.30;;;;;;5073136;28;19987;-90
2022/10/25 13:50:27;;;;;;;;;;;34.70;32.40;;;;;;5090694;28;20413;-89
2022/10/25 13:53:04;;;;;;;;;;;34.80;32.90;;;;;;5092562;28;19955;-90
2022/10/25 13:55:36;;;;;;;;;;;34.70;33.30;;;;;;5092585;28;19942;-90
2022/10/25 13:58:21;;;;;;;;;;;34.90;32.10;;;;;;5088380;28;19939;-90
2022/10/25 14:00:49;;;;;;;;;;;35.10;32.30;;;;;;5090822;28;20437;-90
2022/10/25 14:03:15;;;;;;;;;;;33.70;34.30;;;;;;5088914;28;20030;-90
2022/10/25 14:05:52;;;;;;;;;;;33.20;34.80;;;;;;5094089;28;20046;-90
2022/10/25 14:08:27;;;;;;;;;;;32.70;36.20;;;;;;5092419;28;19962;-89
2022/10/25 14:10:53;;;;;;;;;;;32.50;35.90;;;;;;5091451;28;20447;-89
2022/10/25 14:13:37;;;;;;;;;;;32.60;36.60;;;;;;5093464;28;19950;-89
2022/10/25 14:16:03;;;;;;;;;;;31.70;37.70;;;;;;5080945;28;20393;-89
2022/10/25 14:18:29;;;;;;;;;;;32.00;38.00;;;;;;5090219;28;19971;-89
2022/10/25 14:20:57;;;;;;;;;;;32.00;37.10;;;;;;5106774;27;19978;-89
2022/10/25 14:23:29;;;;;;;;;;;32.00;37.60;;;;;;5087116;28;19951;-89
2022/10/25 14:25:58;;;;;;;;;;;32.30;37.50;;;;;;5091226;28;19998;-90